createdAt,value
2023-03-22T00:00:47.348Z,8.10
2023-03-22T00:04:03.835Z,7.30
2023-03-22T00:07:11.872Z,8.10
2023-03-22T00:10:20.011Z,7.50
2023-03-22T00:13:27.937Z,7.70
2023-03-22T00:16:43.838Z,7.30
2023-03-22T00:19:54.626Z,7.40
2023-03-22T00:23:03.028Z,7.60
2023-03-22T00:26:13.595Z,7.40
2023-03-22T00:29:22.906Z,7.70
2023-03-22T00:32:30.850Z,8.00
2023-03-22T00:35:38.970Z,7.50
2023-03-22T00:38:47.057Z,7.80
2023-03-22T00:42:03.277Z,8.30
2023-03-22T00:45:19.302Z,8.60
2023-03-22T00:48:27.145Z,8.30
2023-03-22T00:51:35.468Z,8.40
2023-03-22T00:54:52.308Z,8.90
2023-03-22T00:58:00.138Z,7.70
2023-03-22T01:01:08.635Z,9.00
2023-03-22T01:04:18.248Z,9.60
2023-03-22T01:07:27.555Z,8.90
2023-03-22T01:10:35.567Z,9.10
2023-03-22T01:13:43.500Z,8.80
2023-03-22T01:16:59.461Z,9.00
2023-03-22T01:20:10.201Z,8.70
2023-03-22T01:23:18.458Z,10.00
2023-03-22T01:26:34.525Z,9.50
2023-03-22T01:29:42.305Z,10.20
2023-03-22T01:32:58.568Z,10.80
2023-03-22T01:36:07.918Z,10.70
2023-03-22T01:39:17.058Z,10.60
2023-03-22T01:42:33.147Z,9.30
2023-03-22T01:45:46.187Z,9.80
2023-03-22T01:49:03.301Z,10.40
2023-03-22T01:52:16.119Z,10.00
2023-03-22T01:55:26.239Z,10.10
2023-03-22T01:58:43.527Z,9.50
2023-03-22T02:01:51.447Z,9.30
2023-03-22T02:05:00.432Z,9.80
2023-03-22T02:08:16.387Z,9.50
2023-03-22T02:11:41.604Z,8.80
2023-03-22T02:15:08.669Z,9.20
2023-03-22T02:18:46.820Z,8.80
2023-03-22T02:22:25.963Z,8.50
2023-03-22T02:25:58.055Z,8.70
2023-03-22T02:29:22.314Z,8.40
2023-03-22T02:33:15.550Z,9.00
2023-03-22T02:37:19.080Z,9.20
2023-03-22T02:40:44.915Z,8.30
2023-03-22T02:44:07.894Z,8.50
2023-03-22T02:47:34.328Z,8.50
2023-03-22T02:50:52.558Z,8.40
2023-03-22T02:54:08.451Z,8.10
2023-03-22T02:57:34.663Z,8.40
2023-03-22T03:00:52.616Z,8.90
2023-03-22T03:04:06.175Z,9.30
2023-03-22T03:07:20.420Z,9.10
2023-03-22T03:10:38.393Z,8.80
2023-03-22T03:13:57.400Z,9.60
2023-03-22T03:17:27.759Z,9.90
2023-03-22T03:20:52.588Z,9.40
2023-03-22T03:24:29.589Z,9.60
2023-03-22T03:27:50.068Z,8.70
2023-03-22T03:31:08.093Z,8.30
2023-03-22T03:34:25.769Z,9.60
2023-03-22T03:37:47.162Z,9.10
2023-03-22T03:41:00.250Z,9.70
2023-03-22T03:44:10.338Z,9.40
2023-03-22T03:47:27.933Z,9.10
2023-03-22T03:50:37.126Z,10.00
2023-03-22T03:53:45.393Z,10.10
2023-03-22T03:56:53.856Z,9.70
2023-03-22T04:00:10.224Z,9.90
2023-03-22T04:03:27.340Z,9.20
2023-03-22T04:06:43.485Z,9.60
2023-03-22T04:09:51.445Z,9.90
2023-03-22T04:13:07.436Z,10.10
2023-03-22T04:16:25.468Z,10.10
2023-03-22T04:19:33.619Z,10.10
2023-03-22T04:22:42.386Z,9.70
2023-03-22T04:25:50.975Z,10.00
2023-03-22T04:29:07.586Z,10.80
2023-03-22T04:32:25.134Z,10.50
2023-03-22T04:35:41.048Z,10.20
2023-03-22T04:38:49.510Z,9.20
2023-03-22T04:41:59.261Z,9.90
2023-03-22T04:45:09.217Z,10.40
2023-03-22T04:51:36.160Z,8.90
2023-03-22T04:54:44.479Z,10.30
2023-03-22T04:57:54.911Z,10.20
2023-03-22T05:01:14.311Z,10.30
2023-03-22T05:04:30.141Z,9.90
2023-03-22T05:07:39.418Z,10.10
2023-03-22T05:10:55.449Z,10.30
2023-03-22T05:14:03.663Z,10.30
2023-03-22T05:17:12.001Z,12.30
2023-03-22T05:20:19.875Z,11.90
2023-03-22T05:23:28.433Z,11.80
2023-03-22T05:26:38.151Z,11.70
2023-03-22T05:29:47.124Z,10.60
2023-03-22T05:33:03.218Z,10.70
2023-03-22T05:36:13.318Z,10.30
2023-03-22T05:42:27.403Z,10.80
2023-03-22T05:45:36.907Z,11.80
2023-03-22T05:48:53.714Z,11.50
2023-03-22T05:52:04.427Z,10.60
2023-03-22T05:55:13.883Z,11.50
2023-03-22T05:58:21.711Z,10.10
2023-03-22T06:01:29.584Z,10.50
2023-03-22T06:04:37.429Z,10.60
2023-03-22T06:07:45.957Z,10.00
2023-03-22T06:11:02.031Z,10.20
2023-03-22T06:14:17.961Z,10.50
2023-03-22T06:17:25.717Z,10.00
2023-03-22T06:20:33.591Z,10.60
2023-03-22T06:23:43.691Z,10.50
2023-03-22T06:26:59.906Z,10.20
2023-03-22T06:30:11.422Z,10.10
2023-03-22T06:33:27.869Z,10.60
2023-03-22T06:36:36.613Z,10.70
2023-03-22T06:39:44.514Z,10.50
2023-03-22T06:42:52.673Z,10.40
2023-03-22T06:46:09.093Z,10.40
2023-03-22T06:49:25.135Z,11.80
2023-03-22T06:52:33.158Z,10.70
2023-03-22T06:55:41.437Z,11.40
2023-03-22T06:58:51.930Z,11.10
2023-03-22T07:01:59.790Z,10.80
2023-03-22T07:05:17.063Z,10.80
2023-03-22T07:08:25.478Z,10.70
2023-03-22T07:11:42.206Z,11.40
2023-03-22T07:14:58.705Z,10.90
2023-03-22T07:18:08.362Z,10.20
2023-03-22T07:21:24.310Z,10.90
2023-03-22T07:24:53.869Z,10.30
2023-03-22T07:28:07.086Z,9.90
2023-03-22T07:31:16.845Z,9.50
2023-03-22T07:34:32.662Z,10.90
2023-03-22T07:37:49.892Z,10.00
2023-03-22T07:40:58.522Z,9.80
2023-03-22T07:44:18.189Z,9.60
2023-03-22T07:50:57.345Z,9.70
2023-03-22T07:54:07.595Z,10.10
2023-03-22T07:57:25.178Z,9.50
2023-03-22T08:00:33.340Z,10.20
2023-03-22T08:03:50.253Z,9.60
2023-03-22T08:07:00.159Z,9.20
2023-03-22T08:13:23.250Z,10.90
2023-03-22T08:16:39.772Z,9.60
2023-03-22T08:19:56.322Z,9.90
2023-03-22T08:23:13.917Z,8.70
2023-03-22T08:26:23.329Z,9.50
2023-03-22T08:29:31.495Z,9.70
2023-03-22T08:32:47.550Z,9.80
2023-03-22T08:36:05.270Z,10.20
2023-03-22T08:39:13.834Z,10.30
2023-03-22T08:42:22.276Z,10.40
2023-03-22T08:45:30.777Z,10.20
2023-03-22T08:48:41.928Z,9.80
2023-03-22T08:52:08.043Z,9.80
2023-03-22T08:55:17.697Z,10.10
2023-03-22T08:58:25.517Z,10.20
2023-03-22T09:01:42.017Z,10.10
2023-03-22T09:04:58.089Z,9.80
2023-03-22T09:08:19.629Z,10.60
2023-03-22T09:11:29.134Z,10.60
2023-03-22T09:14:37.183Z,11.00
2023-03-22T09:17:53.432Z,10.50
2023-03-22T09:21:10.149Z,11.10
2023-03-22T09:24:17.995Z,11.10
2023-03-22T09:27:26.001Z,11.60
2023-03-22T09:30:42.456Z,11.10
2023-03-22T09:33:58.964Z,11.00
2023-03-22T09:37:14.881Z,11.30
2023-03-22T09:40:26.344Z,11.00
2023-03-22T09:43:48.234Z,11.40
2023-03-22T09:47:09.464Z,10.30
2023-03-22T09:50:30.586Z,10.10
2023-03-22T09:53:39.030Z,10.30
2023-03-22T09:56:50.897Z,9.80
2023-03-22T10:00:20.280Z,10.40
2023-03-22T10:04:02.683Z,10.20
2023-03-22T10:07:28.568Z,10.10
2023-03-22T10:10:37.776Z,8.90
2023-03-22T10:13:58.661Z,9.30
2023-03-22T10:17:13.382Z,9.10
2023-03-22T10:20:37.384Z,9.90
2023-03-22T10:23:52.712Z,8.90
2023-03-22T10:27:01.020Z,9.80
2023-03-22T10:30:24.532Z,9.40
2023-03-22T10:33:58.472Z,9.30
2023-03-22T10:37:13.296Z,9.40
2023-03-22T10:40:28.741Z,9.50
2023-03-22T10:43:40.655Z,9.40
2023-03-22T10:46:59.090Z,8.80
2023-03-22T10:50:22.268Z,8.40
2023-03-22T10:53:41.272Z,8.90
2023-03-22T10:56:49.116Z,9.20
2023-03-22T11:00:08.861Z,8.90
2023-03-22T11:03:38.148Z,8.40
2023-03-22T11:07:02.891Z,8.70
2023-03-22T11:10:28.713Z,9.60
2023-03-22T11:13:38.511Z,9.40
2023-03-22T11:16:57.246Z,11.60
2023-03-22T11:20:18.392Z,10.90
2023-03-22T11:23:28.615Z,10.60
2023-03-22T11:26:41.537Z,9.90
2023-03-22T11:29:53.340Z,9.20
2023-03-22T11:33:22.371Z,10.10
2023-03-22T11:36:31.596Z,8.80
2023-03-22T11:39:46.824Z,9.40
2023-03-22T11:42:59.974Z,8.50
2023-03-22T11:46:12.539Z,8.30
2023-03-22T11:49:22.308Z,8.90
2023-03-22T11:52:31.702Z,8.80
2023-03-22T11:55:41.205Z,8.50
2023-03-22T11:59:10.771Z,10.20
2023-03-22T12:02:27.996Z,8.10
2023-03-22T12:05:40.657Z,8.60
2023-03-22T12:08:55.531Z,8.40
2023-03-22T12:12:07.010Z,7.90
2023-03-22T12:15:28.966Z,8.20
2023-03-22T12:18:43.044Z,7.50
2023-03-22T12:21:55.085Z,8.20
2023-03-22T12:25:12.029Z,7.40
2023-03-22T12:28:35.051Z,8.10
2023-03-22T12:32:02.029Z,7.70
2023-03-22T12:35:17.983Z,7.90
2023-03-22T12:38:41.141Z,7.70
2023-03-22T12:42:04.330Z,7.50
2023-03-22T12:45:28.241Z,7.00
2023-03-22T12:48:46.440Z,6.90
2023-03-22T12:52:09.875Z,7.20
2023-03-22T12:55:26.234Z,8.00
2023-03-22T12:58:34.102Z,8.20
2023-03-22T13:01:54.969Z,8.20
2023-03-22T13:05:13.722Z,7.80
2023-03-22T13:08:25.913Z,8.10
2023-03-22T13:11:33.948Z,7.70
2023-03-22T13:15:40.453Z,7.50
2023-03-22T13:19:31.947Z,6.90
2023-03-22T13:23:27.261Z,8.30
2023-03-22T13:26:46.161Z,8.00
2023-03-22T13:30:09.387Z,7.70
2023-03-22T13:33:29.815Z,8.10
2023-03-22T13:36:38.494Z,7.30
2023-03-22T13:40:01.243Z,9.30
2023-03-22T13:43:33.090Z,7.40
2023-03-22T13:47:06.746Z,8.30
2023-03-22T13:50:31.236Z,7.90
2023-03-22T13:53:44.026Z,7.90
2023-03-22T13:57:04.485Z,9.50
2023-03-22T14:01:05.563Z,8.70
2023-03-22T14:04:29.790Z,9.00
2023-03-22T14:07:44.665Z,7.60
2023-03-22T14:11:11.571Z,7.50
2023-03-22T14:14:27.673Z,7.40
2023-03-22T14:17:50.765Z,7.40
2023-03-22T14:21:11.300Z,7.10
